createdAt,value
2018-11-06T00:01:52.767Z,99209.80
2018-11-06T00:04:25.816Z,99216.34
2018-11-06T00:06:54.707Z,99214.70
2018-11-06T00:09:23.198Z,99208.98
2018-11-06T00:11:51.591Z,99205.36
2018-11-06T00:14:19.992Z,99206.37
2018-11-06T00:16:48.425Z,99209.80
2018-11-06T00:19:16.868Z,99207.34
2018-11-06T00:21:45.407Z,99204.92
2018-11-06T00:24:14.005Z,99205.92
2018-11-06T00:26:42.478Z,99209.05
2018-11-06T00:29:12.009Z,99211.86
2018-11-06T00:31:40.415Z,99206.78
2018-11-06T00:34:08.889Z,99192.58
2018-11-06T00:36:37.378Z,99193.08
2018-11-06T00:39:07.459Z,99192.97
2018-11-06T00:41:35.861Z,99192.16
2018-11-06T00:44:04.601Z,99193.64
2018-11-06T00:46:33.007Z,99193.64
2018-11-06T00:49:01.530Z,99193.33
2018-11-06T00:51:29.952Z,99192.83
2018-11-06T00:53:58.393Z,99197.45
2018-11-06T00:56:27.018Z,99192.08
2018-11-06T00:58:55.503Z,99194.05
2018-11-06T01:01:23.962Z,99193.59
2018-11-06T01:03:58.050Z,99196.37
2018-11-06T01:06:26.508Z,99196.37
2018-11-06T01:08:55.957Z,99192.44
2018-11-06T01:11:24.494Z,99191.63
2018-11-06T01:13:52.906Z,99194.45
2018-11-06T01:16:21.994Z,99187.29
2018-11-06T01:18:50.736Z,99184.83
2018-11-06T01:21:19.421Z,99187.95
2018-11-06T01:23:48.371Z,99186.53
2018-11-06T01:26:16.811Z,99185.42
2018-11-06T01:28:46.353Z,99177.26
2018-11-06T01:31:14.830Z,99168.76
2018-11-06T01:33:43.350Z,99164.33
2018-11-06T01:36:11.803Z,99165.83
2018-11-06T01:38:40.255Z,99170.57
2018-11-06T01:41:08.746Z,99176.31
2018-11-06T01:43:37.640Z,99179.63
2018-11-06T01:46:06.624Z,99175.75
2018-11-06T01:48:35.069Z,99176.84
2018-11-06T01:51:03.570Z,99178.51
2018-11-06T01:53:31.969Z,99177.89
2018-11-06T01:56:00.420Z,99174.97
2018-11-06T01:58:28.847Z,99171.85
2018-11-06T02:00:57.402Z,99167.42
2018-11-06T02:03:26.845Z,99162.99
2018-11-06T02:05:55.324Z,99155.14
2018-11-06T02:08:23.783Z,99165.11
2018-11-06T02:10:52.215Z,99154.02
2018-11-06T02:13:20.689Z,99167.42
2018-11-06T02:15:49.157Z,99162.48
2018-11-06T02:18:17.569Z,99154.02
2018-11-06T02:20:46.512Z,99149.09
2018-11-06T02:23:15.225Z,99157.14
2018-11-06T02:25:43.622Z,99160.31
2018-11-06T02:28:12.041Z,99172.80
2018-11-06T02:30:40.508Z,99179.08
2018-11-06T02:33:09.831Z,99181.48
2018-11-06T02:35:38.214Z,99176.52
2018-11-06T02:38:06.780Z,99172.77
2018-11-06T02:40:35.152Z,99178.88
2018-11-06T02:43:03.674Z,99175.00
2018-11-06T02:45:32.085Z,99172.27
2018-11-06T02:48:00.508Z,99161.19
2018-11-06T02:50:28.934Z,99171.01
2018-11-06T02:52:57.366Z,99177.94
2018-11-06T02:55:25.794Z,99174.05
2018-11-06T02:57:54.313Z,99176.05
2018-11-06T03:00:22.706Z,99170.82
2018-11-06T03:02:51.121Z,99163.47
2018-11-06T03:05:19.582Z,99158.86
2018-11-06T03:07:48.017Z,99149.70
2018-11-06T03:10:16.565Z,99159.16
2018-11-06T03:12:45.881Z,99155.74
2018-11-06T03:15:15.152Z,99156.74
2018-11-06T03:17:43.717Z,99155.55
2018-11-06T03:20:12.841Z,99149.34
2018-11-06T03:22:41.825Z,99147.46
2018-11-06T03:25:10.703Z,99144.98
2018-11-06T03:27:39.176Z,99138.56
2018-11-06T03:30:10.628Z,99130.02
2018-11-06T03:32:39.258Z,99127.05
2018-11-06T03:35:09.787Z,99127.66
2018-11-06T03:37:38.437Z,99137.13
2018-11-06T03:40:07.698Z,99130.39
2018-11-06T03:42:37.089Z,99134.66
2018-11-06T03:45:06.362Z,99125.66
2018-11-06T03:47:35.734Z,99123.38
2018-11-06T03:50:04.386Z,99125.66
2018-11-06T03:52:32.812Z,99132.20
2018-11-06T03:55:01.292Z,99129.78
2018-11-06T03:57:29.736Z,99138.13
2018-11-06T03:59:58.132Z,99137.02
2018-11-06T04:02:26.801Z,99141.75
2018-11-06T04:04:55.613Z,99146.67
2018-11-06T04:07:24.008Z,99148.79
2018-11-06T04:09:52.449Z,99138.82
2018-11-06T04:12:20.878Z,99134.40
2018-11-06T04:14:49.612Z,99134.40
2018-11-06T04:17:18.105Z,99126.43
2018-11-06T04:19:46.559Z,99133.78
2018-11-06T04:22:14.984Z,99150.64
2018-11-06T04:24:43.394Z,99155.95
2018-11-06T04:27:11.852Z,99148.46
2018-11-06T04:29:40.295Z,99144.53
2018-11-06T04:32:08.773Z,99147.46
2018-11-06T04:34:37.214Z,99138.14
2018-11-06T04:37:05.891Z,99136.33
2018-11-06T04:39:34.317Z,99135.83
2018-11-06T04:42:02.725Z,99137.95
2018-11-06T04:44:31.513Z,99133.02
2018-11-06T04:46:59.944Z,99120.94
2018-11-06T04:49:28.396Z,99125.67
2018-11-06T04:51:58.029Z,99121.95
2018-11-06T04:54:26.528Z,99119.44
2018-11-06T04:56:55.024Z,99125.78
2018-11-06T04:59:23.508Z,99125.78
2018-11-06T05:01:52.048Z,99132.64
2018-11-06T05:04:20.615Z,99123.48
2018-11-06T05:06:49.148Z,99117.58
2018-11-06T05:09:17.613Z,99124.43
2018-11-06T05:11:46.015Z,99130.16
2018-11-06T05:14:14.647Z,99130.78
2018-11-06T05:16:43.160Z,99129.97
2018-11-06T05:19:11.631Z,99133.20
2018-11-06T05:21:40.071Z,99131.08
2018-11-06T05:24:10.532Z,99135.20
2018-11-06T05:26:38.973Z,99130.36
2018-11-06T05:29:07.946Z,99131.02
2018-11-06T05:31:36.595Z,99133.33
2018-11-06T05:34:05.112Z,99141.68
2018-11-06T05:36:33.680Z,99132.83
2018-11-06T05:39:02.906Z,99122.86
2018-11-06T05:41:31.246Z,99124.48
2018-11-06T05:43:59.997Z,99120.55
2018-11-06T05:46:28.531Z,99117.44
2018-11-06T05:48:57.438Z,99122.36
2018-11-06T05:51:29.940Z,99127.91
2018-11-06T05:53:58.568Z,99124.78
2018-11-06T05:56:27.313Z,99118.58
2018-11-06T05:58:55.697Z,99125.73
2018-11-06T06:01:24.119Z,99125.43
2018-11-06T06:03:52.534Z,99136.70
2018-11-06T06:06:20.952Z,99137.52
2018-11-06T06:08:49.418Z,99146.98
2018-11-06T06:11:18.197Z,99146.78
2018-11-06T06:13:46.528Z,99148.59
2018-11-06T06:16:14.960Z,99148.91
2018-11-06T06:18:43.374Z,99149.21
2018-11-06T06:21:11.812Z,99153.47
2018-11-06T06:23:40.268Z,99153.94
2018-11-06T06:26:09.658Z,99154.78
2018-11-06T06:28:38.143Z,99155.09
2018-11-06T06:31:06.554Z,99152.47
2018-11-06T06:33:34.948Z,99155.39
2018-11-06T06:36:03.482Z,99162.44
2018-11-06T06:38:31.914Z,99166.86
2018-11-06T06:41:00.841Z,99166.86
2018-11-06T06:43:29.177Z,99169.17
2018-11-06T06:45:57.550Z,99166.56
2018-11-06T06:48:25.991Z,99177.19
2018-11-06T06:50:54.427Z,99177.69
2018-11-06T06:53:22.768Z,99173.65
2018-11-06T06:55:51.503Z,99172.70
2018-11-06T06:58:19.951Z,99170.97
2018-11-06T07:00:48.452Z,99178.36
2018-11-06T07:03:16.861Z,99182.97
2018-11-06T07:05:45.281Z,99171.51
2018-11-06T07:08:14.200Z,99165.61
2018-11-06T07:10:42.616Z,99156.57
2018-11-06T07:13:12.242Z,99157.50
2018-11-06T07:15:40.786Z,99157.14
2018-11-06T07:18:09.270Z,99163.80
2018-11-06T07:20:43.413Z,99160.68
2018-11-06T07:23:11.850Z,99158.88
2018-11-06T07:25:40.276Z,99157.56
2018-11-06T07:28:08.709Z,99166.06
2018-11-06T07:30:37.121Z,99164.25
2018-11-06T07:33:05.650Z,99170.09
2018-11-06T07:35:34.815Z,99172.72
2018-11-06T07:38:03.147Z,99178.76
2018-11-06T07:40:31.674Z,99186.92
2018-11-06T07:43:00.059Z,99182.80
2018-11-06T07:45:28.668Z,99178.41
2018-11-06T07:47:57.096Z,99179.20
2018-11-06T07:50:25.607Z,99181.83
2018-11-06T07:52:54.478Z,99180.52
2018-11-06T07:55:22.896Z,99167.44
2018-11-06T07:57:51.296Z,99165.43
2018-11-06T08:00:22.806Z,99156.88
2018-11-06T08:02:51.334Z,99151.09
2018-11-06T08:05:19.996Z,99148.89
2018-11-06T08:07:49.125Z,99142.80
2018-11-06T08:10:17.661Z,99150.09
2018-11-06T08:12:47.637Z,99149.70
2018-11-06T08:15:16.251Z,99158.52
2018-11-06T08:17:45.181Z,99157.92
2018-11-06T08:20:13.871Z,99141.05
2018-11-06T08:22:45.894Z,99142.77
2018-11-06T08:25:15.313Z,99141.56
2018-11-06T08:27:44.280Z,99141.56
2018-11-06T08:30:13.178Z,99143.02
2018-11-06T08:32:42.329Z,99149.36
2018-11-06T08:35:13.109Z,99161.95
2018-11-06T08:37:41.979Z,99156.72
2018-11-06T08:40:11.886Z,99158.84
2018-11-06T08:42:40.472Z,99149.00
2018-11-06T08:45:11.585Z,99150.92
2018-11-06T08:47:41.623Z,99149.92
2018-11-06T08:50:11.919Z,99146.30
2018-11-06T08:52:40.631Z,99136.92
2018-11-06T08:55:10.666Z,99132.33
2018-11-06T08:57:39.570Z,99135.09
2018-11-06T09:00:10.928Z,99136.50
2018-11-06T09:02:39.440Z,99134.02
2018-11-06T09:05:10.225Z,99139.00
2018-11-06T09:07:38.795Z,99124.70
2018-11-06T09:10:08.820Z,99126.11
2018-11-06T09:12:37.896Z,99124.93
2018-11-06T09:15:08.927Z,99121.30
2018-11-06T09:17:38.263Z,99134.01
2018-11-06T09:20:08.341Z,99131.22
2018-11-06T09:22:36.904Z,99133.64
2018-11-06T09:25:07.592Z,99138.24
2018-11-06T09:27:36.299Z,99136.02
2018-11-06T09:30:07.166Z,99143.27
2018-11-06T09:32:35.681Z,99139.50
2018-11-06T09:35:05.060Z,99130.70
2018-11-06T09:37:33.566Z,99124.45
2018-11-06T09:40:02.057Z,99112.30
2018-11-06T09:42:30.535Z,99107.27
2018-11-06T09:44:59.044Z,99109.62
2018-11-06T09:47:27.436Z,99104.00
2018-11-06T09:49:56.174Z,99111.67
2018-11-06T09:52:24.641Z,99111.27
2018-11-06T09:54:53.174Z,99112.71
2018-11-06T09:57:21.598Z,99120.07
2018-11-06T09:59:50.109Z,99117.75
2018-11-06T10:02:18.874Z,99113.75
2018-11-06T10:04:47.346Z,99112.64
2018-11-06T10:07:16.102Z,99115.70
2018-11-06T10:09:44.290Z,99107.73
2018-11-06T10:12:12.805Z,99106.55
2018-11-06T10:14:41.252Z,99098.28
2018-11-06T10:17:10.313Z,99100.23
2018-11-06T10:19:39.058Z,99089.23
2018-11-06T10:22:07.468Z,99091.25
2018-11-06T10:24:35.929Z,99099.25
2018-11-06T10:27:04.442Z,99105.19
2018-11-06T10:29:32.868Z,99097.66
2018-11-06T10:32:01.395Z,99099.06
2018-11-06T10:34:29.841Z,99109.86
2018-11-06T10:36:58.285Z,99104.11
2018-11-06T10:39:26.851Z,99097.55
2018-11-06T10:41:55.298Z,99090.28
2018-11-06T10:44:23.900Z,99086.98
2018-11-06T10:46:52.331Z,99091.02
2018-11-06T10:49:20.844Z,99099.19
2018-11-06T10:51:49.331Z,99106.88
2018-11-06T10:54:17.746Z,99109.91
2018-11-06T10:56:46.201Z,99107.88
2018-11-06T10:59:14.610Z,99109.49
2018-11-06T11:01:48.662Z,99100.22
2018-11-06T11:04:20.038Z,99082.27
2018-11-06T11:06:53.339Z,99080.74
2018-11-06T11:09:21.801Z,99083.16
2018-11-06T11:11:50.302Z,99080.63
2018-11-06T11:14:18.781Z,99079.75
2018-11-06T11:16:47.255Z,99070.48
2018-11-06T11:19:15.713Z,99070.58
2018-11-06T11:21:44.160Z,99071.48
2018-11-06T11:24:12.671Z,99074.73
2018-11-06T11:26:41.593Z,99062.20
2018-11-06T11:29:10.802Z,99056.55
2018-11-06T11:31:39.355Z,99053.84
2018-11-06T11:34:07.913Z,99056.88
2018-11-06T11:36:36.585Z,99061.72
2018-11-06T11:39:07.204Z,99063.33
2018-11-06T11:41:35.703Z,99056.89
2018-11-06T11:44:04.322Z,99050.63
2018-11-06T11:46:32.785Z,99045.47
2018-11-06T11:49:01.350Z,99037.38
2018-11-06T11:51:29.786Z,99046.06
2018-11-06T11:53:58.396Z,99050.51
2018-11-06T11:56:26.857Z,99049.02
2018-11-06T11:58:55.652Z,99057.88
2018-11-06T12:01:24.223Z,99047.58
2018-11-06T12:03:53.596Z,99044.75
2018-11-06T12:06:22.081Z,99045.58
2018-11-06T12:08:50.570Z,99050.71
2018-11-06T12:11:19.016Z,99049.70
2018-11-06T12:13:47.505Z,99050.11
2018-11-06T12:16:16.063Z,99057.69
2018-11-06T12:18:44.502Z,99051.92
2018-11-06T12:21:13.672Z,99051.42
2018-11-06T12:23:42.233Z,99058.79
2018-11-06T12:26:10.714Z,99054.34
2018-11-06T12:28:39.156Z,99045.24
2018-11-06T12:31:07.627Z,99047.27
2018-11-06T12:33:37.112Z,99045.16
2018-11-06T12:36:05.892Z,99049.39
2018-11-06T12:38:37.575Z,99051.42
2018-11-06T12:41:06.317Z,99047.48
2018-11-06T12:43:34.760Z,99059.59
2018-11-06T12:46:03.250Z,99065.34
2018-11-06T12:48:31.915Z,99064.55
2018-11-06T12:51:00.744Z,99055.06
2018-11-06T12:53:29.157Z,99055.15
2018-11-06T12:55:57.737Z,99060.82
2018-11-06T12:58:26.184Z,99063.23
2018-11-06T13:00:54.608Z,99060.31
2018-11-06T13:03:23.101Z,99060.70
2018-11-06T13:05:51.519Z,99065.64
2018-11-06T13:08:19.937Z,99067.15
2018-11-06T13:10:48.355Z,99067.05
2018-11-06T13:13:16.893Z,99074.39
2018-11-06T13:15:45.800Z,99067.61
2018-11-06T13:18:14.165Z,99066.08
2018-11-06T13:20:42.652Z,99074.95
2018-11-06T13:23:12.134Z,99084.63
2018-11-06T13:25:40.665Z,99089.56
2018-11-06T13:28:09.049Z,99091.58
2018-11-06T13:30:37.650Z,99102.65
2018-11-06T13:33:06.050Z,99100.07
2018-11-06T13:35:34.384Z,99113.89
2018-11-06T13:38:02.885Z,99119.03
2018-11-06T13:40:31.283Z,99124.14
2018-11-06T13:42:59.879Z,99132.70
2018-11-06T13:45:28.449Z,99148.70
2018-11-06T13:47:56.741Z,99162.77
2018-11-06T13:50:25.646Z,99167.58
2018-11-06T13:52:54.618Z,99168.17
2018-11-06T13:55:23.878Z,99166.62
2018-11-06T13:57:53.092Z,99166.11
2018-11-06T14:00:21.883Z,99166.05
2018-11-06T14:02:51.718Z,99168.48
2018-11-06T14:05:20.280Z,99171.30
2018-11-06T14:07:48.785Z,99183.70
2018-11-06T14:10:20.454Z,99196.09
2018-11-06T14:12:48.983Z,99193.39
2018-11-06T14:15:17.427Z,99190.07
2018-11-06T14:17:45.889Z,99197.88
2018-11-06T14:20:15.419Z,99207.82
2018-11-06T14:22:44.359Z,99217.59
2018-11-06T14:25:13.957Z,99222.03
2018-11-06T14:27:42.619Z,99237.23
2018-11-06T14:30:15.227Z,99241.66
2018-11-06T14:32:43.975Z,99251.99
2018-11-06T14:35:13.874Z,99260.80
2018-11-06T14:37:43.050Z,99268.34
2018-11-06T14:40:12.264Z,99267.50
2018-11-06T14:42:41.273Z,99268.16
2018-11-06T14:45:11.428Z,99261.72
2018-11-06T14:47:40.820Z,99253.06
2018-11-06T14:50:10.234Z,99253.45
2018-11-06T14:52:38.697Z,99257.61
2018-11-06T14:55:09.375Z,99257.61
2018-11-06T14:57:37.861Z,99262.66
2018-11-06T15:00:12.435Z,99260.16
2018-11-06T15:02:42.606Z,99262.42
2018-11-06T15:05:11.026Z,99262.03
2018-11-06T15:07:39.465Z,99273.96
2018-11-06T15:10:08.664Z,99271.46
2018-11-06T15:12:37.311Z,99270.61
2018-11-06T15:15:08.093Z,99275.95
2018-11-06T15:17:36.570Z,99288.23
2018-11-06T15:20:08.129Z,99285.81
2018-11-06T15:22:36.655Z,99284.20
2018-11-06T15:25:06.547Z,99289.74
2018-11-06T15:27:34.956Z,99290.36
2018-11-06T15:30:04.541Z,99296.41
2018-11-06T15:32:33.055Z,99292.98
2018-11-06T15:35:02.347Z,99295.91
2018-11-06T15:37:37.970Z,99293.73
2018-11-06T15:40:10.249Z,99291.42
2018-11-06T15:42:47.367Z,99294.86
2018-11-06T15:45:17.124Z,99296.78
2018-11-06T15:47:46.061Z,99289.54
2018-11-06T15:50:15.725Z,99287.76
2018-11-06T15:52:45.163Z,99293.16
2018-11-06T15:55:14.532Z,99289.31
2018-11-06T15:57:42.943Z,99294.05
2018-11-06T16:00:14.038Z,99306.99
2018-11-06T16:02:42.975Z,99310.92
2018-11-06T16:05:12.702Z,99318.47
2018-11-06T16:07:41.338Z,99313.92
2018-11-06T16:10:13.238Z,99318.66
2018-11-06T16:12:42.308Z,99311.61
2018-11-06T16:15:10.781Z,99322.20
2018-11-06T16:17:39.429Z,99320.73
2018-11-06T16:20:11.131Z,99323.36
2018-11-06T16:22:39.715Z,99329.91
2018-11-06T16:25:11.470Z,99338.87
2018-11-06T16:30:11.518Z,99349.16
2018-11-06T16:32:39.988Z,99356.67
2018-11-06T16:35:10.932Z,99363.72
2018-11-06T16:37:39.826Z,99384.33
2018-11-06T16:40:08.811Z,99382.59
2018-11-06T16:42:37.609Z,99382.78
2018-11-06T16:47:35.747Z,99391.67
2018-11-06T16:50:05.111Z,99391.67
2018-11-06T16:52:33.644Z,99391.67
2018-11-06T16:55:02.314Z,99392.67
2018-11-06T16:57:30.738Z,99390.55
2018-11-06T16:59:59.293Z,99399.22
2018-11-06T17:02:27.706Z,99397.27
2018-11-06T17:04:56.202Z,99403.25
2018-11-06T17:07:24.636Z,99401.98
2018-11-06T17:09:53.079Z,99410.34
2018-11-06T17:12:21.557Z,99421.66
2018-11-06T17:14:49.991Z,99426.77
2018-11-06T17:17:18.474Z,99433.34
2018-11-06T17:19:47.788Z,99435.97
2018-11-06T17:22:16.222Z,99439.58
2018-11-06T17:24:44.655Z,99437.84
2018-11-06T17:27:13.616Z,99449.77
2018-11-06T17:29:42.878Z,99434.56
2018-11-06T17:32:11.368Z,99452.73
2018-11-06T17:34:39.806Z,99444.06
2018-11-06T17:37:08.280Z,99442.76
2018-11-06T17:39:36.760Z,99438.48
2018-11-06T17:42:05.335Z,99445.37
2018-11-06T17:44:33.881Z,99436.37
2018-11-06T17:47:02.396Z,99441.30
2018-11-06T17:49:31.173Z,99437.67
2018-11-06T17:52:00.543Z,99438.98
2018-11-06T17:54:28.959Z,99429.52
2018-11-06T17:56:57.430Z,99424.75
2018-11-06T17:59:26.885Z,99422.25
2018-11-06T18:01:55.422Z,99422.88
2018-11-06T18:04:24.415Z,99428.08
2018-11-06T18:06:52.617Z,99424.42
2018-11-06T18:09:21.037Z,99426.82
2018-11-06T18:11:49.471Z,99421.02
2018-11-06T18:14:17.923Z,99419.17
2018-11-06T18:16:46.729Z,99425.49
2018-11-06T18:19:15.947Z,99430.97
2018-11-06T18:21:44.363Z,99437.79
2018-11-06T18:24:12.873Z,99432.52
2018-11-06T18:26:41.356Z,99429.35
2018-11-06T18:29:10.228Z,99428.00
2018-11-06T18:31:38.738Z,99426.96
2018-11-06T18:34:07.477Z,99431.01
2018-11-06T18:36:35.947Z,99427.73
2018-11-06T18:39:08.225Z,99423.41
2018-11-06T18:41:36.873Z,99422.91
2018-11-06T18:44:05.986Z,99435.16
2018-11-06T18:46:34.516Z,99422.67
2018-11-06T18:49:03.216Z,99427.22
2018-11-06T18:51:31.716Z,99421.13
2018-11-06T18:54:00.202Z,99414.69
2018-11-06T18:56:28.928Z,99407.95
2018-11-06T18:58:57.452Z,99402.54
2018-11-06T19:01:25.866Z,99410.21
2018-11-06T19:03:54.345Z,99410.21
2018-11-06T19:06:22.821Z,99420.50
2018-11-06T19:08:51.600Z,99425.74
2018-11-06T19:11:20.034Z,99433.11
2018-11-06T19:13:48.490Z,99434.11
2018-11-06T19:16:16.911Z,99437.54
2018-11-06T19:18:45.317Z,99437.73
2018-11-06T19:21:13.963Z,99430.68
2018-11-06T19:23:42.423Z,99427.55
2018-11-06T19:26:10.885Z,99422.31
2018-11-06T19:28:39.526Z,99419.69
2018-11-06T19:31:08.370Z,99421.31
2018-11-06T19:33:36.876Z,99427.36
2018-11-06T19:36:05.496Z,99426.55
2018-11-06T19:38:34.201Z,99420.81
2018-11-06T19:41:02.790Z,99416.06
2018-11-06T19:43:31.252Z,99412.64
2018-11-06T19:45:59.720Z,99416.56
2018-11-06T19:48:28.338Z,99418.88
2018-11-06T19:50:57.129Z,99421.50
2018-11-06T19:53:25.630Z,99419.89
2018-11-06T19:55:54.080Z,99424.13
2018-11-06T19:58:22.609Z,99423.01
2018-11-06T20:00:51.477Z,99418.58
2018-11-06T20:03:20.203Z,99418.58
2018-11-06T20:05:49.091Z,99415.80
2018-11-06T20:08:17.539Z,99413.69
2018-11-06T20:10:45.979Z,99413.38
2018-11-06T20:13:15.271Z,99406.63
2018-11-06T20:15:44.335Z,99412.88
2018-11-06T20:18:12.868Z,99414.58
2018-11-06T20:20:41.292Z,99417.36
2018-11-06T20:23:09.856Z,99423.30
2018-11-06T20:25:39.394Z,99421.17
2018-11-06T20:28:07.922Z,99417.31
2018-11-06T20:30:36.354Z,99424.34
2018-11-06T20:33:05.092Z,99423.53
2018-11-06T20:35:33.915Z,99432.09
2018-11-06T20:38:02.707Z,99445.99
2018-11-06T20:40:31.349Z,99439.14
2018-11-06T20:42:59.910Z,99444.87
2018-11-06T20:45:28.460Z,99443.76
2018-11-06T20:47:56.923Z,99442.26
2018-11-06T20:50:25.640Z,99433.78
2018-11-06T20:52:54.114Z,99438.33
2018-11-06T20:55:22.937Z,99439.14
2018-11-06T20:57:51.989Z,99441.45
2018-11-06T21:00:22.732Z,99454.40
2018-11-06T21:02:52.493Z,99454.82
2018-11-06T21:05:21.091Z,99455.40
2018-11-06T21:07:49.546Z,99464.80
2018-11-06T21:10:20.146Z,99457.85
2018-11-06T21:12:48.814Z,99464.47
2018-11-06T21:15:17.975Z,99471.55
2018-11-06T21:17:46.579Z,99471.27
2018-11-06T21:20:16.745Z,99468.66
2018-11-06T21:22:45.157Z,99461.61
2018-11-06T21:25:14.178Z,99461.30
2018-11-06T21:27:42.902Z,99462.80
2018-11-06T21:30:14.073Z,99467.22
2018-11-06T21:32:44.782Z,99469.03
2018-11-06T21:35:13.376Z,99478.00
2018-11-06T21:37:41.773Z,99472.64
2018-11-06T21:40:13.513Z,99470.49
2018-11-06T21:42:42.893Z,99468.06
2018-11-06T21:45:12.318Z,99460.70
2018-11-06T21:47:42.057Z,99460.20
2018-11-06T21:50:11.618Z,99463.33
2018-11-06T21:52:40.287Z,99458.59
2018-11-06T21:55:10.639Z,99457.28
2018-11-06T21:57:39.140Z,99456.16
2018-11-06T22:00:12.057Z,99454.84
2018-11-06T22:02:40.412Z,99454.84
2018-11-06T22:05:10.736Z,99459.77
2018-11-06T22:07:39.692Z,99461.92
2018-11-06T22:10:10.710Z,99459.49
2018-11-06T22:12:39.956Z,99461.11
2018-11-06T22:15:09.731Z,99459.80
2018-11-06T22:17:38.837Z,99458.18
2018-11-06T22:20:09.565Z,99455.06
2018-11-06T22:22:38.125Z,99450.83
2018-11-06T22:25:06.851Z,99447.41
2018-11-06T22:27:35.866Z,99437.92
2018-11-06T22:30:06.373Z,99442.16
2018-11-06T22:32:34.819Z,99443.47
2018-11-06T22:35:03.903Z,99447.41
2018-11-06T22:37:32.385Z,99448.55
2018-11-06T22:40:01.558Z,99448.90
2018-11-06T22:42:30.020Z,99453.78
2018-11-06T22:44:58.891Z,99448.24
2018-11-06T22:47:27.400Z,99440.58
2018-11-06T22:49:55.916Z,99442.88
2018-11-06T22:52:24.871Z,99447.12
2018-11-06T22:54:53.552Z,99447.12
2018-11-06T22:57:22.009Z,99448.12
2018-11-06T22:59:50.630Z,99452.38
2018-11-06T23:02:19.380Z,99457.31
2018-11-06T23:04:49.108Z,99461.92
2018-11-06T23:07:23.743Z,99466.03
2018-11-06T23:09:52.266Z,99462.13
2018-11-06T23:12:20.767Z,99468.18
2018-11-06T23:14:49.223Z,99469.67
2018-11-06T23:17:18.409Z,99464.12
2018-11-06T23:19:46.982Z,99453.84
2018-11-06T23:22:15.486Z,99456.15
2018-11-06T23:24:44.026Z,99458.92
2018-11-06T23:27:12.581Z,99465.46
2018-11-06T23:29:40.978Z,99452.06
2018-11-06T23:32:09.581Z,99449.95
2018-11-06T23:34:38.172Z,99455.99
2018-11-06T23:37:06.617Z,99456.17
2018-11-06T23:39:35.022Z,99459.91
2018-11-06T23:42:03.692Z,99455.18
2018-11-06T23:44:32.125Z,99454.87
2018-11-06T23:47:00.808Z,99449.82
2018-11-06T23:49:29.223Z,99446.55
2018-11-06T23:51:57.850Z,99447.86
2018-11-06T23:54:26.281Z,99444.92
2018-11-06T23:56:54.929Z,99450.47
2018-11-06T23:59:23.679Z,99462.75
